Atlantic Tramp — V7SM5 — position and weather

sailwx.info

Track history (hours):
 
Tides and Currents Weather Stations Pressure Air Temp Water Temp Dewpoint Dewpoint Depression Visibility Wind Speed Wind Dir Waves Ship Positions

Atlantic Tramp

Last reported at 2016-Aug-18 05:31 UTC. Time now 2016-Aug-31 23:27 UTC.
Position S 23°07' W 041°60'.
Warning: this ship's position is 13 days out of date.

Length 180 m; draft 7 m.

Type: Cargo ship. MMSI: 538003682.

Date/timePositionNaut miles runAvg speedWind from/ knotsBaromVisibWave heightAir tempDewpointWater temp
2016-Aug-18 05:31S 23°07' W 041°60'4514.9
2016-Aug-18 02:28S 23°06' W 042°49'1314.4
2016-Aug-18 01:33S 23°04' W 043°04'10 9.9
2016-Aug-18 00:33S 22°56' W 043°08'4 3.7
2016-Aug-17 23:31S 22°54' W 043°12'0 0.0
2016-Aug-17 22:31S 22°54' W 043°12'0 0.0
2016-Aug-17 21:25S 22°54' W 043°12'0 0.0
2016-Aug-17 20:31S 22°54' W 043°12'0 0.0
2016-Aug-17 19:31S 22°54' W 043°12'0 0.0
2016-Aug-17 18:31S 22°54' W 043°12'0 0.0
2016-Aug-17 17:31S 22°54' W 043°12'0 0.0
2016-Aug-17 16:31S 22°54' W 043°12'0 0.0
2016-Aug-17 15:31S 22°54' W 043°12'0 0.0
2016-Aug-17 14:31S 22°54' W 043°12'0 0.0
2016-Aug-17 13:31S 22°54' W 043°12'0 0.0
2016-Aug-17 12:31S 22°54' W 043°12'0 0.0
2016-Aug-17 11:31S 22°54' W 043°12'0 0.0
2016-Aug-17 10:31S 22°54' W 043°12'0 0.0
2016-Aug-17 09:25S 22°54' W 043°12'0 0.0
2016-Aug-17 08:31S 22°54' W 043°12'0 0.0
2016-Aug-17 07:31S 22°54' W 043°12'0 0.0
2016-Aug-17 06:19S 22°54' W 043°12'0 0.0
2016-Aug-17 05:31S 22°54' W 043°12'0 0.0
2016-Aug-17 04:25S 22°54' W 043°12'0 0.0
2016-Aug-17 03:31S 22°54' W 043°12'0 0.0
2016-Aug-17 02:31S 22°54' W 043°12'0 0.0
2016-Aug-17 01:31S 22°54' W 043°12'0 0.0
2016-Aug-17 00:31S 22°54' W 043°12'0 0.0
2016-Aug-16 23:31S 22°54' W 043°12'0 0.0
2016-Aug-16 22:31S 22°54' W 043°12'0 0.0
2016-Aug-16 21:31S 22°54' W 043°12'0 0.0
2016-Aug-16 20:31S 22°54' W 043°12'0 0.0
2016-Aug-16 19:31S 22°54' W 043°12'0 0.0
2016-Aug-16 18:31S 22°54' W 043°12'0 0.0
2016-Aug-16 17:31S 22°54' W 043°12'0 0.0
2016-Aug-16 16:31S 22°54' W 043°12'0 0.0
2016-Aug-16 15:31S 22°54' W 043°12'0 0.0
2016-Aug-16 14:31S 22°54' W 043°12'0 0.0
2016-Aug-16 13:25S 22°54' W 043°12'0 0.0
2016-Aug-16 12:31S 22°54' W 043°12'0 0.0
2016-Aug-16 11:31S 22°54' W 043°12'0 0.0
2016-Aug-16 10:31S 22°54' W 043°12'0 0.0
2016-Aug-16 09:31S 22°54' W 043°12'0 0.0
2016-Aug-16 08:31S 22°54' W 043°12'0 0.0
2016-Aug-16 07:31S 22°54' W 043°12'0 0.0
2016-Aug-16 04:31S 22°54' W 043°12'0 0.0
2016-Aug-16 03:31S 22°54' W 043°12'0 0.0
2016-Aug-16 02:31S 22°54' W 043°12'0 0.0
2016-Aug-16 01:31S 22°54' W 043°12'0 0.0
2016-Aug-16 00:31S 22°54' W 043°12'0 0.0
2016-Aug-15 23:31S 22°54' W 043°12'0 0.0
2016-Aug-15 22:31S 22°54' W 043°12'0 0.0
2016-Aug-15 21:31S 22°54' W 043°12'0 0.0
2016-Aug-15 20:31S 22°54' W 043°12'0 0.0
2016-Aug-15 19:31S 22°54' W 043°12'0 0.0
2016-Aug-15 18:31S 22°54' W 043°12'0 0.0
2016-Aug-15 17:31S 22°54' W 043°12'0 0.0
2016-Aug-15 16:31S 22°54' W 043°12'0 0.0
2016-Aug-15 15:31S 22°54' W 043°12'0 0.0
2016-Aug-15 14:31S 22°54' W 043°12'0 0.0
2016-Aug-15 13:33S 22°54' W 043°12'2 1.6
2016-Aug-15 12:33S 22°53' W 043°10'9 9.0
2016-Aug-15 11:33S 23°02' W 043°06'8 6.2
2016-Aug-15 10:18S 23°07' W 043°01'0 0.0
2016-Aug-15 09:06S 23°08' W 043°01'0 0.0
2016-Aug-15 08:30S 23°08' W 043°01'0 0.0
2016-Aug-15 07:30S 23°08' W 043°01'0 0.0
2016-Aug-15 06:24S 23°08' W 043°01'0 0.0
2016-Aug-15 04:18S 23°08' W 043°01'0 0.0
2016-Aug-15 00:30S 23°07' W 043°01'0 0.1
2016-Aug-14 23:30S 23°07' W 043°01'0 0.0
2016-Aug-14 22:30S 23°07' W 043°01'0 0.1
2016-Aug-14 21:30S 23°07' W 043°01'0 0.0
2016-Aug-14 20:30S 23°07' W 043°01'0 0.0
2016-Aug-14 19:30S 23°07' W 043°01'0 0.0
2016-Aug-14 18:24S 23°07' W 043°00'0 0.0
2016-Aug-14 17:18S 23°07' W 043°00'0 0.0
2016-Aug-14 16:30S 23°07' W 043°00'0 0.0
2016-Aug-14 15:30S 23°07' W 043°00'0 0.0
2016-Aug-14 14:30S 23°07' W 043°00'0 0.0
2016-Aug-14 10:18S 23°07' W 043°00'0 0.0
2016-Aug-14 09:30S 23°08' W 043°00'0 0.0
2016-Aug-14 08:30S 23°08' W 043°00'0 0.0
2016-Aug-14 03:18S 23°08' W 043°01'0 0.0
2016-Aug-14 02:30S 23°07' W 043°01'0 0.0
2016-Aug-13 23:26S 23°08' W 043°01'27112.8
2016-Aug-13 02:18S 25°43' W 047°04'  
Track history (hours):
 
Tides and Currents Weather Stations Pressure Air Temp Water Temp Dewpoint Dewpoint Depression Visibility Wind Speed Wind Dir Waves Ship Positions

Atlantic Tramp

Last reported at 2016-Aug-18 05:31 UTC. Time now 2016-Aug-31 23:27 UTC.
Position S 23°07' W 041°60'.
Warning: this ship's position is 13 days out of date.

Length 180 m; draft 7 m.

Type: Cargo ship. MMSI: 538003682.

Date/timePositionNaut miles runAvg speedWind from/ knotsBaromVisibWave heightAir tempDewpointWater temp
2016-Aug-18 05:31S 23°07' W 041°60'4514.9
2016-Aug-18 02:28S 23°06' W 042°49'1314.4
2016-Aug-18 01:33S 23°04' W 043°04'10 9.9
2016-Aug-18 00:33S 22°56' W 043°08'4 3.7
2016-Aug-17 23:31S 22°54' W 043°12'0 0.0
2016-Aug-17 22:31S 22°54' W 043°12'0 0.0
2016-Aug-17 21:25S 22°54' W 043°12'0 0.0
2016-Aug-17 20:31S 22°54' W 043°12'0 0.0
2016-Aug-17 19:31S 22°54' W 043°12'0 0.0
2016-Aug-17 18:31S 22°54' W 043°12'0 0.0
2016-Aug-17 17:31S 22°54' W 043°12'0 0.0
2016-Aug-17 16:31S 22°54' W 043°12'0 0.0
2016-Aug-17 15:31S 22°54' W 043°12'0 0.0
2016-Aug-17 14:31S 22°54' W 043°12'0 0.0
2016-Aug-17 13:31S 22°54' W 043°12'0 0.0
2016-Aug-17 12:31S 22°54' W 043°12'0 0.0
2016-Aug-17 11:31S 22°54' W 043°12'0 0.0
2016-Aug-17 10:31S 22°54' W 043°12'0 0.0
2016-Aug-17 09:25S 22°54' W 043°12'0 0.0
2016-Aug-17 08:31S 22°54' W 043°12'0 0.0
2016-Aug-17 07:31S 22°54' W 043°12'0 0.0
2016-Aug-17 06:19S 22°54' W 043°12'0 0.0
2016-Aug-17 05:31S 22°54' W 043°12'0 0.0
2016-Aug-17 04:25S 22°54' W 043°12'0 0.0
2016-Aug-17 03:31S 22°54' W 043°12'0 0.0
2016-Aug-17 02:31S 22°54' W 043°12'0 0.0
2016-Aug-17 01:31S 22°54' W 043°12'0 0.0
2016-Aug-17 00:31S 22°54' W 043°12'0 0.0
2016-Aug-16 23:31S 22°54' W 043°12'0 0.0
2016-Aug-16 22:31S 22°54' W 043°12'0 0.0
2016-Aug-16 21:31S 22°54' W 043°12'0 0.0
2016-Aug-16 20:31S 22°54' W 043°12'0 0.0
2016-Aug-16 19:31S 22°54' W 043°12'0 0.0
2016-Aug-16 18:31S 22°54' W 043°12'0 0.0
2016-Aug-16 17:31S 22°54' W 043°12'0 0.0
2016-Aug-16 16:31S 22°54' W 043°12'0 0.0
2016-Aug-16 15:31S 22°54' W 043°12'0 0.0
2016-Aug-16 14:31S 22°54' W 043°12'0 0.0
2016-Aug-16 13:25S 22°54' W 043°12'0 0.0
2016-Aug-16 12:31S 22°54' W 043°12'0 0.0
2016-Aug-16 11:31S 22°54' W 043°12'0 0.0
2016-Aug-16 10:31S 22°54' W 043°12'0 0.0
2016-Aug-16 09:31S 22°54' W 043°12'0 0.0
2016-Aug-16 08:31S 22°54' W 043°12'0 0.0
2016-Aug-16 07:31S 22°54' W 043°12'0 0.0
2016-Aug-16 04:31S 22°54' W 043°12'0 0.0
2016-Aug-16 03:31S 22°54' W 043°12'0 0.0
2016-Aug-16 02:31S 22°54' W 043°12'0 0.0
2016-Aug-16 01:31S 22°54' W 043°12'0 0.0
2016-Aug-16 00:31S 22°54' W 043°12'0 0.0
2016-Aug-15 23:31S 22°54' W 043°12'0 0.0
2016-Aug-15 22:31S 22°54' W 043°12'0 0.0
2016-Aug-15 21:31S 22°54' W 043°12'0 0.0
2016-Aug-15 20:31S 22°54' W 043°12'0 0.0
2016-Aug-15 19:31S 22°54' W 043°12'0 0.0
2016-Aug-15 18:31S 22°54' W 043°12'0 0.0
2016-Aug-15 17:31S 22°54' W 043°12'0 0.0
2016-Aug-15 16:31S 22°54' W 043°12'0 0.0
2016-Aug-15 15:31S 22°54' W 043°12'0 0.0
2016-Aug-15 14:31S 22°54' W 043°12'0 0.0
2016-Aug-15 13:33S 22°54' W 043°12'2 1.6
2016-Aug-15 12:33S 22°53' W 043°10'9 9.0
2016-Aug-15 11:33S 23°02' W 043°06'8 6.2
2016-Aug-15 10:18S 23°07' W 043°01'0 0.0
2016-Aug-15 09:06S 23°08' W 043°01'0 0.0
2016-Aug-15 08:30S 23°08' W 043°01'0 0.0
2016-Aug-15 07:30S 23°08' W 043°01'0 0.0
2016-Aug-15 06:24S 23°08' W 043°01'0 0.0
2016-Aug-15 04:18S 23°08' W 043°01'0 0.0
2016-Aug-15 00:30S 23°07' W 043°01'0 0.1
2016-Aug-14 23:30S 23°07' W 043°01'0 0.0
2016-Aug-14 22:30S 23°07' W 043°01'0 0.1
2016-Aug-14 21:30S 23°07' W 043°01'0 0.0
2016-Aug-14 20:30S 23°07' W 043°01'0 0.0
2016-Aug-14 19:30S 23°07' W 043°01'0 0.0
2016-Aug-14 18:24S 23°07' W 043°00'0 0.0
2016-Aug-14 17:18S 23°07' W 043°00'0 0.0
2016-Aug-14 16:30S 23°07' W 043°00'0 0.0
2016-Aug-14 15:30S 23°07' W 043°00'0 0.0
2016-Aug-14 14:30S 23°07' W 043°00'0 0.0
2016-Aug-14 10:18S 23°07' W 043°00'0 0.0
2016-Aug-14 09:30S 23°08' W 043°00'0 0.0
2016-Aug-14 08:30S 23°08' W 043°00'0 0.0
2016-Aug-14 03:18S 23°08' W 043°01'0 0.0
2016-Aug-14 02:30S 23°07' W 043°01'0 0.0
2016-Aug-13 23:26S 23°08' W 043°01'27112.8
2016-Aug-13 02:18S 25°43' W 047°04'  

Dump ship's entire track history